Newton Upper Falls, Massachusetts
Current Conditions -  °F | °C
As of 11:53 PM on Saturday 25 Oct 2014 (Local Time) from KOWD Reporting Station
Overcast Overcast  
Wind Chill: 53°   Ceiling: 10000
Heat Index: 53°   Visibility: 10mi
Dew Point: 46°   Wind: 3mph
Humidity: 77%   Direction: 140°SE
Pressure: 29.49"   Gusts: NA
Location:  42.31°N, 71.22°W
Report Text: KOWD 260353Z AUTO 14003KT 10SM OVC100 12/08 A2949 RMK AO2 SLP986 T01170078
Loading
Personal Weather Stations






























Interactive Weather Map
Tropical Storm Tracking
New forecast layout! Learn more

10-Day Weather Forecast

Advertisements
Track Severe Weather on mobile